sensor_id;sensor_type;location;lat;lon;timestamp;P1;durP1;ratioP1;P2;durP2;ratioP2
15814;SDS011;8008;50.024;8.172;2022-09-12T03:02:13;12.45;;;8.65;;
15814;SDS011;8008;50.024;8.172;2022-09-12T03:10:58;14.23;;;9.00;;
15814;SDS011;8008;50.024;8.172;2022-09-12T03:13:37;13.55;;;8.13;;
15814;SDS011;8008;50.024;8.172;2022-09-12T03:16:14;13.43;;;8.52;;
15814;SDS011;8008;50.024;8.172;2022-09-12T03:18:51;13.65;;;8.60;;
15814;SDS011;8008;50.024;8.172;2022-09-12T03:21:28;14.30;;;8.23;;
15814;SDS011;8008;50.024;8.172;2022-09-12T03:24:03;13.85;;;8.60;;
15814;SDS011;8008;50.024;8.172;2022-09-12T03:26:38;11.10;;;8.25;;
15814;SDS011;8008;50.024;8.172;2022-09-12T03:29:10;14.95;;;8.35;;
15814;SDS011;8008;50.024;8.172;2022-09-12T03:31:47;12.70;;;7.95;;
15814;SDS011;8008;50.024;8.172;2022-09-12T03:34:18;14.02;;;8.82;;
15814;SDS011;8008;50.024;8.172;2022-09-12T03:36:48;11.32;;;8.07;;
15814;SDS011;8008;50.024;8.172;2022-09-12T03:39:16;12.23;;;8.05;;
15814;SDS011;8008;50.024;8.172;2022-09-12T03:41:45;13.73;;;8.23;;
15814;SDS011;8008;50.024;8.172;2022-09-12T03:44:13;12.82;;;8.82;;
15814;SDS011;8008;50.024;8.172;2022-09-12T03:46:41;15.10;;;9.07;;
15814;SDS011;8008;50.024;8.172;2022-09-12T03:49:09;14.13;;;8.38;;
15814;SDS011;8008;50.024;8.172;2022-09-12T03:51:38;14.45;;;8.80;;
15814;SDS011;8008;50.024;8.172;2022-09-12T03:54:06;13.77;;;8.50;;
15814;SDS011;8008;50.024;8.172;2022-09-12T03:56:34;10.88;;;8.10;;
15814;SDS011;8008;50.024;8.172;2022-09-12T03:59:03;13.15;;;8.90;;
15814;SDS011;8008;50.024;8.172;2022-09-12T04:01:32;13.25;;;8.73;;
15814;SDS011;8008;50.024;8.172;2022-09-12T04:04:00;12.98;;;8.27;;
15814;SDS011;8008;50.024;8.172;2022-09-12T04:06:29;14.27;;;8.65;;
15814;SDS011;8008;50.024;8.172;2022-09-12T04:08:58;14.30;;;8.50;;
15814;SDS011;8008;50.024;8.172;2022-09-12T04:11:26;13.82;;;8.63;;
15814;SDS011;8008;50.024;8.172;2022-09-12T04:13:54;14.20;;;9.07;;
15814;SDS011;8008;50.024;8.172;2022-09-12T04:16:22;14.00;;;9.45;;
15814;SDS011;8008;50.024;8.172;2022-09-12T04:18:49;14.70;;;8.93;;
15814;SDS011;8008;50.024;8.172;2022-09-12T04:21:18;11.90;;;8.68;;
15814;SDS011;8008;50.024;8.172;2022-09-12T04:23:47;12.95;;;8.90;;
15814;SDS011;8008;50.024;8.172;2022-09-12T04:26:17;15.07;;;9.40;;
15814;SDS011;8008;50.024;8.172;2022-09-12T04:28:46;16.08;;;9.95;;
15814;SDS011;8008;50.024;8.172;2022-09-12T04:31:15;15.73;;;10.50;;
15814;SDS011;8008;50.024;8.172;2022-09-12T04:33:45;15.95;;;9.70;;
15814;SDS011;8008;50.024;8.172;2022-09-12T04:36:19;15.10;;;10.00;;
15814;SDS011;8008;50.024;8.172;2022-09-12T04:38:48;15.70;;;9.45;;
15814;SDS011;8008;50.024;8.172;2022-09-12T04:41:19;13.55;;;9.75;;
15814;SDS011;8008;50.024;8.172;2022-09-12T04:43:50;15.65;;;10.15;;
15814;SDS011;8008;50.024;8.172;2022-09-12T04:46:19;17.30;;;10.73;;
15814;SDS011;8008;50.024;8.172;2022-09-12T04:48:47;16.35;;;10.52;;
15814;SDS011;8008;50.024;8.172;2022-09-12T04:51:22;15.30;;;10.45;;
15814;SDS011;8008;50.024;8.172;2022-09-12T04:53:54;19.48;;;10.82;;
15814;SDS011;8008;50.024;8.172;2022-09-12T04:56:24;16.08;;;10.38;;
15814;SDS011;8008;50.024;8.172;2022-09-12T04:58:55;19.02;;;10.55;;
15814;SDS011;8008;50.024;8.172;2022-09-12T05:01:23;16.13;;;10.32;;
15814;SDS011;8008;50.024;8.172;2022-09-12T05:03:52;17.13;;;10.63;;
15814;SDS011;8008;50.024;8.172;2022-09-12T05:06:22;17.08;;;10.70;;
15814;SDS011;8008;50.024;8.172;2022-09-12T05:08:51;17.58;;;11.07;;
15814;SDS011;8008;50.024;8.172;2022-09-12T05:11:21;15.20;;;10.68;;
15814;SDS011;8008;50.024;8.172;2022-09-12T05:14:12;18.13;;;10.80;;
15814;SDS011;8008;50.024;8.172;2022-09-12T05:16:40;18.30;;;10.68;;
15814;SDS011;8008;50.024;8.172;2022-09-12T05:19:14;16.23;;;10.60;;
15814;SDS011;8008;50.024;8.172;2022-09-12T05:21:42;14.57;;;9.95;;
15814;SDS011;8008;50.024;8.172;2022-09-12T05:24:10;16.77;;;10.38;;
15814;SDS011;8008;50.024;8.172;2022-09-12T05:26:38;17.05;;;10.02;;
15814;SDS011;8008;50.024;8.172;2022-09-12T05:29:06;17.67;;;9.80;;
15814;SDS011;8008;50.024;8.172;2022-09-12T05:31:35;15.63;;;9.48;;
15814;SDS011;8008;50.024;8.172;2022-09-12T05:34:03;16.20;;;9.30;;
15814;SDS011;8008;50.024;8.172;2022-09-12T05:36:32;17.45;;;10.75;;
15814;SDS011;8008;50.024;8.172;2022-09-12T05:39:00;22.92;;;12.18;;
15814;SDS011;8008;50.024;8.172;2022-09-12T05:41:29;22.33;;;11.98;;
15814;SDS011;8008;50.024;8.172;2022-09-12T05:43:59;18.55;;;11.32;;
15814;SDS011;8008;50.024;8.172;2022-09-12T05:46:29;23.20;;;12.68;;
15814;SDS011;8008;50.024;8.172;2022-09-12T05:49:02;23.60;;;12.77;;
15814;SDS011;8008;50.024;8.172;2022-09-12T05:51:32;20.80;;;12.18;;
15814;SDS011;8008;50.024;8.172;2022-09-12T05:54:01;36.13;;;12.93;;
15814;SDS011;8008;50.024;8.172;2022-09-12T05:56:31;20.90;;;12.27;;
15814;SDS011;8008;50.024;8.172;2022-09-12T05:59:01;19.90;;;12.40;;
15814;SDS011;8008;50.024;8.172;2022-09-12T06:01:30;17.63;;;11.25;;
15814;SDS011;8008;50.024;8.172;2022-09-12T06:04:00;17.33;;;11.27;;
15814;SDS011;8008;50.024;8.172;2022-09-12T06:06:33;17.17;;;10.40;;
15814;SDS011;8008;50.024;8.172;2022-09-12T06:09:03;21.20;;;11.70;;
15814;SDS011;8008;50.024;8.172;2022-09-12T06:11:32;17.70;;;10.73;;
15814;SDS011;8008;50.024;8.172;2022-09-12T06:14:02;20.67;;;11.75;;
15814;SDS011;8008;50.024;8.172;2022-09-12T06:16:31;16.63;;;10.98;;
15814;SDS011;8008;50.024;8.172;2022-09-12T06:19:00;17.85;;;11.05;;
15814;SDS011;8008;50.024;8.172;2022-09-12T06:21:32;15.35;;;10.23;;
15814;SDS011;8008;50.024;8.172;2022-09-12T06:24:00;15.65;;;10.25;;
15814;SDS011;8008;50.024;8.172;2022-09-12T06:26:29;16.58;;;10.05;;
15814;SDS011;8008;50.024;8.172;2022-09-12T06:28:58;15.82;;;10.48;;
15814;SDS011;8008;50.024;8.172;2022-09-12T06:31:27;16.90;;;10.90;;
15814;SDS011;8008;50.024;8.172;2022-09-12T06:33:58;15.85;;;10.32;;
15814;SDS011;8008;50.024;8.172;2022-09-12T06:36:29;17.05;;;11.38;;
15814;SDS011;8008;50.024;8.172;2022-09-12T06:38:58;15.35;;;10.48;;
15814;SDS011;8008;50.024;8.172;2022-09-12T06:41:27;17.48;;;9.90;;
15814;SDS011;8008;50.024;8.172;2022-09-12T06:43:57;15.63;;;10.60;;
15814;SDS011;8008;50.024;8.172;2022-09-12T06:46:26;18.17;;;10.45;;
15814;SDS011;8008;50.024;8.172;2022-09-12T06:48:56;17.15;;;10.77;;
15814;SDS011;8008;50.024;8.172;2022-09-12T06:51:26;14.43;;;10.10;;
15814;SDS011;8008;50.024;8.172;2022-09-12T06:53:56;15.25;;;10.10;;
15814;SDS011;8008;50.024;8.172;2022-09-12T06:56:25;16.48;;;10.10;;
15814;SDS011;8008;50.024;8.172;2022-09-12T06:58:54;16.92;;;11.07;;
15814;SDS011;8008;50.024;8.172;2022-09-12T07:01:24;15.10;;;10.27;;
15814;SDS011;8008;50.024;8.172;2022-09-12T07:03:53;17.35;;;9.88;;
15814;SDS011;8008;50.024;8.172;2022-09-12T07:06:24;17.17;;;10.90;;
15814;SDS011;8008;50.024;8.172;2022-09-12T07:08:58;18.10;;;10.38;;
15814;SDS011;8008;50.024;8.172;2022-09-12T07:11:28;16.35;;;10.40;;
15814;SDS011;8008;50.024;8.172;2022-09-12T07:13:58;17.98;;;11.52;;
15814;SDS011;8008;50.024;8.172;2022-09-12T07:16:27;17.30;;;11.00;;
15814;SDS011;8008;50.024;8.172;2022-09-12T07:18:57;16.10;;;10.65;;
15814;SDS011;8008;50.024;8.172;2022-09-12T07:21:26;19.00;;;11.43;;
15814;SDS011;8008;50.024;8.172;2022-09-12T07:23:55;17.85;;;11.85;;
15814;SDS011;8008;50.024;8.172;2022-09-12T07:26:25;15.18;;;10.45;;
15814;SDS011;8008;50.024;8.172;2022-09-12T07:28:54;20.85;;;12.02;;
15814;SDS011;8008;50.024;8.172;2022-09-12T07:31:43;15.52;;;10.90;;
15814;SDS011;8008;50.024;8.172;2022-09-12T07:34:11;19.52;;;11.88;;
15814;SDS011;8008;50.024;8.172;2022-09-12T07:36:39;16.63;;;10.73;;
15814;SDS011;8008;50.024;8.172;2022-09-12T07:39:07;16.42;;;11.15;;
15814;SDS011;8008;50.024;8.172;2022-09-12T07:41:37;14.23;;;10.13;;
15814;SDS011;8008;50.024;8.172;2022-09-12T07:44:04;14.95;;;11.15;;
15814;SDS011;8008;50.024;8.172;2022-09-12T07:46:32;14.35;;;10.55;;
15814;SDS011;8008;50.024;8.172;2022-09-12T07:49:00;15.55;;;10.48;;
15814;SDS011;8008;50.024;8.172;2022-09-12T07:51:29;17.13;;;10.90;;
15814;SDS011;8008;50.024;8.172;2022-09-12T07:53:57;16.88;;;10.40;;
15814;SDS011;8008;50.024;8.172;2022-09-12T07:56:26;16.35;;;11.15;;
15814;SDS011;8008;50.024;8.172;2022-09-12T07:59:00;13.75;;;10.20;;
15814;SDS011;8008;50.024;8.172;2022-09-12T08:01:29;14.52;;;10.43;;
15814;SDS011;8008;50.024;8.172;2022-09-12T08:03:57;16.63;;;10.68;;
15814;SDS011;8008;50.024;8.172;2022-09-12T08:06:27;13.55;;;10.23;;
15814;SDS011;8008;50.024;8.172;2022-09-12T08:08:57;15.32;;;11.00;;
15814;SDS011;8008;50.024;8.172;2022-09-12T08:11:25;14.95;;;10.77;;
15814;SDS011;8008;50.024;8.172;2022-09-12T08:13:55;15.70;;;10.43;;
15814;SDS011;8008;50.024;8.172;2022-09-12T08:16:25;15.60;;;9.60;;
15814;SDS011;8008;50.024;8.172;2022-09-12T08:18:55;15.73;;;10.27;;
15814;SDS011;8008;50.024;8.172;2022-09-12T08:21:25;13.30;;;9.88;;
15814;SDS011;8008;50.024;8.172;2022-09-12T08:23:54;13.50;;;9.57;;
15814;SDS011;8008;50.024;8.172;2022-09-12T08:26:23;13.50;;;9.48;;
15814;SDS011;8008;50.024;8.172;2022-09-12T08:28:51;12.88;;;9.27;;
15814;SDS011;8008;50.024;8.172;2022-09-12T08:31:20;15.55;;;9.13;;
15814;SDS011;8008;50.024;8.172;2022-09-12T08:33:53;11.55;;;8.75;;
15814;SDS011;8008;50.024;8.172;2022-09-12T08:36:23;11.90;;;9.05;;
15814;SDS011;8008;50.024;8.172;2022-09-12T08:38:53;13.00;;;8.93;;
15814;SDS011;8008;50.024;8.172;2022-09-12T08:41:27;11.27;;;8.57;;
15814;SDS011;8008;50.024;8.172;2022-09-12T08:43:58;11.30;;;8.52;;
15814;SDS011;8008;50.024;8.172;2022-09-12T08:46:48;11.20;;;8.30;;
15814;SDS011;8008;50.024;8.172;2022-09-12T08:49:26;10.75;;;8.63;;
15814;SDS011;8008;50.024;8.172;2022-09-12T08:51:58;9.80;;;8.18;;
15814;SDS011;8008;50.024;8.172;2022-09-12T08:54:30;10.75;;;7.97;;
15814;SDS011;8008;50.024;8.172;2022-09-12T08:57:01;10.27;;;8.05;;
15814;SDS011;8008;50.024;8.172;2022-09-12T08:59:32;11.45;;;8.38;;
15814;SDS011;8008;50.024;8.172;2022-09-12T09:02:04;12.90;;;8.68;;
15814;SDS011;8008;50.024;8.172;2022-09-12T09:04:56;8.55;;;7.65;;
15814;SDS011;8008;50.024;8.172;2022-09-12T09:07:39;9.52;;;8.00;;
15814;SDS011;8008;50.024;8.172;2022-09-12T09:10:26;9.85;;;7.60;;
15814;SDS011;8008;50.024;8.172;2022-09-12T09:13:08;9.27;;;7.32;;
15814;SDS011;8008;50.024;8.172;2022-09-12T09:16:04;9.65;;;8.20;;
15814;SDS011;8008;50.024;8.172;2022-09-12T09:18:40;10.18;;;7.85;;
15814;SDS011;8008;50.024;8.172;2022-09-12T09:21:15;10.05;;;7.43;;
15814;SDS011;8008;50.024;8.172;2022-09-12T09:23:51;12.13;;;8.35;;
15814;SDS011;8008;50.024;8.172;2022-09-12T09:26:25;10.85;;;7.45;;
15814;SDS011;8008;50.024;8.172;2022-09-12T09:28:58;10.25;;;7.95;;
15814;SDS011;8008;50.024;8.172;2022-09-12T09:31:29;11.43;;;8.38;;
15814;SDS011;8008;50.024;8.172;2022-09-12T09:34:00;10.05;;;7.43;;
15814;SDS011;8008;50.024;8.172;2022-09-12T09:36:35;12.80;;;8.93;;
15814;SDS011;8008;50.024;8.172;2022-09-12T09:39:12;9.90;;;8.07;;
15814;SDS011;8008;50.024;8.172;2022-09-12T09:41:50;9.95;;;7.75;;
15814;SDS011;8008;50.024;8.172;2022-09-12T09:44:25;13.00;;;7.90;;
15814;SDS011;8008;50.024;8.172;2022-09-12T09:46:56;11.30;;;8.07;;
15814;SDS011;8008;50.024;8.172;2022-09-12T09:49:25;9.35;;;7.65;;
15814;SDS011;8008;50.024;8.172;2022-09-12T09:51:57;9.60;;;7.15;;
15814;SDS011;8008;50.024;8.172;2022-09-12T09:54:27;10.00;;;7.75;;
15814;SDS011;8008;50.024;8.172;2022-09-12T09:57:01;9.63;;;7.55;;
15814;SDS011;8008;50.024;8.172;2022-09-12T09:59:29;8.70;;;7.25;;
15814;SDS011;8008;50.024;8.172;2022-09-12T10:01:59;9.48;;;7.65;;
15814;SDS011;8008;50.024;8.172;2022-09-12T10:04:30;10.00;;;7.07;;
15814;SDS011;8008;50.024;8.172;2022-09-12T10:07:15;8.02;;;6.60;;
15814;SDS011;8008;50.024;8.172;2022-09-12T10:10:02;8.52;;;6.97;;
15814;SDS011;8008;50.024;8.172;2022-09-12T10:12:31;9.98;;;7.00;;
15814;SDS011;8008;50.024;8.172;2022-09-12T10:15:00;8.93;;;7.18;;
15814;SDS011;8008;50.024;8.172;2022-09-12T10:17:31;11.45;;;7.15;;
15814;SDS011;8008;50.024;8.172;2022-09-12T10:20:21;9.90;;;6.35;;
15814;SDS011;8008;50.024;8.172;2022-09-12T10:22:59;7.78;;;6.93;;
15814;SDS011;8008;50.024;8.172;2022-09-12T10:25:28;7.82;;;6.85;;
15814;SDS011;8008;50.024;8.172;2022-09-12T10:27:57;11.00;;;7.03;;
15814;SDS011;8008;50.024;8.172;2022-09-12T10:30:27;8.18;;;6.82;;
15814;SDS011;8008;50.024;8.172;2022-09-12T10:32:56;8.07;;;6.28;;
15814;SDS011;8008;50.024;8.172;2022-09-12T10:35:41;9.48;;;6.40;;
15814;SDS011;8008;50.024;8.172;2022-09-12T10:38:14;8.45;;;7.20;;
15814;SDS011;8008;50.024;8.172;2022-09-12T10:40:53;8.02;;;7.10;;
15814;SDS011;8008;50.024;8.172;2022-09-12T10:43:26;7.20;;;5.88;;
15814;SDS011;8008;50.024;8.172;2022-09-12T10:45:56;8.05;;;6.88;;
15814;SDS011;8008;50.024;8.172;2022-09-12T10:48:26;6.88;;;5.90;;
15814;SDS011;8008;50.024;8.172;2022-09-12T10:50:57;7.13;;;5.25;;
15814;SDS011;8008;50.024;8.172;2022-09-12T10:53:27;7.72;;;5.85;;
15814;SDS011;8008;50.024;8.172;2022-09-12T10:56:07;6.20;;;5.45;;
15814;SDS011;8008;50.024;8.172;2022-09-12T11:01:35;10.40;;;5.65;;
15814;SDS011;8008;50.024;8.172;2022-09-12T11:07:17;8.00;;;5.20;;
15814;SDS011;8008;50.024;8.172;2022-09-12T11:10:04;5.85;;;4.97;;
15814;SDS011;8008;50.024;8.172;2022-09-12T11:12:48;5.78;;;5.18;;
15814;SDS011;8008;50.024;8.172;2022-09-12T11:15:34;7.03;;;5.13;;
15814;SDS011;8008;50.024;8.172;2022-09-12T11:18:27;6.80;;;5.00;;
15814;SDS011;8008;50.024;8.172;2022-09-12T11:21:11;5.70;;;5.10;;
15814;SDS011;8008;50.024;8.172;2022-09-12T11:24:00;5.78;;;5.05;;
15814;SDS011;8008;50.024;8.172;2022-09-12T11:26:43;6.32;;;5.25;;
15814;SDS011;8008;50.024;8.172;2022-09-12T11:29:25;5.55;;;4.95;;
15814;SDS011;8008;50.024;8.172;2022-09-12T11:32:11;5.30;;;4.63;;
15814;SDS011;8008;50.024;8.172;2022-09-12T11:35:01;6.00;;;5.32;;
15814;SDS011;8008;50.024;8.172;2022-09-12T11:37:45;7.50;;;5.65;;
15814;SDS011;8008;50.024;8.172;2022-09-12T11:40:26;4.93;;;4.53;;
15814;SDS011;8008;50.024;8.172;2022-09-12T11:43:00;5.30;;;4.80;;
15814;SDS011;8008;50.024;8.172;2022-09-12T11:45:34;5.18;;;4.68;;
15814;SDS011;8008;50.024;8.172;2022-09-12T11:48:10;5.28;;;4.88;;
15814;SDS011;8008;50.024;8.172;2022-09-12T11:50:44;5.90;;;4.40;;
15814;SDS011;8008;50.024;8.172;2022-09-12T11:53:14;4.55;;;4.15;;
15814;SDS011;8008;50.024;8.172;2022-09-12T11:55:50;3.90;;;3.50;;
15814;SDS011;8008;50.024;8.172;2022-09-12T11:58:25;4.40;;;4.00;;
15814;SDS011;8008;50.024;8.172;2022-09-12T12:00:55;5.22;;;3.80;;
15814;SDS011;8008;50.024;8.172;2022-09-12T12:03:30;4.28;;;3.88;;
15814;SDS011;8008;50.024;8.172;2022-09-12T12:06:04;4.20;;;3.80;;
15814;SDS011;8008;50.024;8.172;2022-09-12T12:08:37;5.43;;;3.88;;
15814;SDS011;8008;50.024;8.172;2022-09-12T12:11:08;4.03;;;3.63;;
15814;SDS011;8008;50.024;8.172;2022-09-12T12:13:38;4.57;;;4.18;;
15814;SDS011;8008;50.024;8.172;2022-09-12T12:16:12;6.47;;;3.95;;
15814;SDS011;8008;50.024;8.172;2022-09-12T12:18:44;4.32;;;3.80;;
15814;SDS011;8008;50.024;8.172;2022-09-12T12:21:20;4.28;;;3.88;;
15814;SDS011;8008;50.024;8.172;2022-09-12T12:24:10;4.60;;;3.42;;
15814;SDS011;8008;50.024;8.172;2022-09-12T12:26:52;4.47;;;4.07;;
15814;SDS011;8008;50.024;8.172;2022-09-12T12:29:41;4.70;;;3.78;;
15814;SDS011;8008;50.024;8.172;2022-09-12T12:32:25;4.43;;;4.03;;
15814;SDS011;8008;50.024;8.172;2022-09-12T12:37:58;4.53;;;3.85;;
15814;SDS011;8008;50.024;8.172;2022-09-12T12:40:27;3.92;;;3.55;;
15814;SDS011;8008;50.024;8.172;2022-09-12T12:43:02;4.15;;;3.75;;
15814;SDS011;8008;50.024;8.172;2022-09-12T12:51:36;3.72;;;3.40;;
15814;SDS011;8008;50.024;8.172;2022-09-12T12:57:26;3.83;;;3.53;;
15814;SDS011;8008;50.024;8.172;2022-09-12T12:59:58;3.70;;;3.38;;
15814;SDS011;8008;50.024;8.172;2022-09-12T13:02:30;3.72;;;3.42;;
15814;SDS011;8008;50.024;8.172;2022-09-12T13:05:00;4.65;;;4.05;;
15814;SDS011;8008;50.024;8.172;2022-09-12T13:07:33;4.30;;;3.90;;
15814;SDS011;8008;50.024;8.172;2022-09-12T13:10:03;4.57;;;3.97;;
15814;SDS011;8008;50.024;8.172;2022-09-12T13:12:33;5.00;;;4.18;;
15814;SDS011;8008;50.024;8.172;2022-09-12T13:15:27;4.55;;;3.83;;
15814;SDS011;8008;50.024;8.172;2022-09-12T13:18:11;4.07;;;3.78;;
15814;SDS011;8008;50.024;8.172;2022-09-12T13:20:44;4.18;;;3.88;;
15814;SDS011;8008;50.024;8.172;2022-09-12T13:23:20;4.25;;;3.85;;
15814;SDS011;8008;50.024;8.172;2022-09-12T13:25:53;3.80;;;3.50;;
15814;SDS011;8008;50.024;8.172;2022-09-12T13:28:22;3.65;;;3.35;;
15814;SDS011;8008;50.024;8.172;2022-09-12T13:30:55;4.18;;;3.25;;
15814;SDS011;8008;50.024;8.172;2022-09-12T13:33:30;4.47;;;3.30;;
15814;SDS011;8008;50.024;8.172;2022-09-12T13:36:08;3.10;;;2.90;;
15814;SDS011;8008;50.024;8.172;2022-09-12T13:38:50;3.20;;;2.90;;
15814;SDS011;8008;50.024;8.172;2022-09-12T13:41:31;3.17;;;2.88;;
15814;SDS011;8008;50.024;8.172;2022-09-12T13:44:08;2.97;;;2.60;;
15814;SDS011;8008;50.024;8.172;2022-09-12T13:46:38;2.85;;;2.65;;
15814;SDS011;8008;50.024;8.172;2022-09-12T13:49:11;2.45;;;2.33;;
15814;SDS011;8008;50.024;8.172;2022-09-12T13:51:51;2.70;;;2.50;;
15814;SDS011;8008;50.024;8.172;2022-09-12T13:54:25;2.38;;;2.20;;
15814;SDS011;8008;50.024;8.172;2022-09-12T13:56:53;2.30;;;2.10;;
15814;SDS011;8008;50.024;8.172;2022-09-12T13:59:21;2.40;;;2.20;;
15814;SDS011;8008;50.024;8.172;2022-09-12T14:01:49;2.70;;;2.22;;
15814;SDS011;8008;50.024;8.172;2022-09-12T14:04:19;2.40;;;2.20;;
15814;SDS011;8008;50.024;8.172;2022-09-12T14:07:18;2.25;;;2.15;;
15814;SDS011;8008;50.024;8.172;2022-09-12T14:09:52;2.22;;;2.10;;
15814;SDS011;8008;50.024;8.172;2022-09-12T14:12:22;2.50;;;2.30;;
15814;SDS011;8008;50.024;8.172;2022-09-12T14:14:54;2.50;;;2.35;;
15814;SDS011;8008;50.024;8.172;2022-09-12T14:17:23;3.55;;;2.13;;
15814;SDS011;8008;50.024;8.172;2022-09-12T14:19:56;2.42;;;2.22;;
15814;SDS011;8008;50.024;8.172;2022-09-12T14:22:27;2.10;;;2.00;;
15814;SDS011;8008;50.024;8.172;2022-09-12T14:24:56;2.20;;;2.10;;
15814;SDS011;8008;50.024;8.172;2022-09-12T14:27:26;1.90;;;1.80;;
15814;SDS011;8008;50.024;8.172;2022-09-12T14:30:00;2.25;;;2.05;;
15814;SDS011;8008;50.024;8.172;2022-09-12T14:32:32;2.38;;;2.17;;
15814;SDS011;8008;50.024;8.172;2022-09-12T14:35:06;2.53;;;2.00;;
15814;SDS011;8008;50.024;8.172;2022-09-12T14:37:45;2.33;;;2.03;;
15814;SDS011;8008;50.024;8.172;2022-09-12T14:40:17;2.40;;;2.20;;
15814;SDS011;8008;50.024;8.172;2022-09-12T14:42:46;2.25;;;2.15;;
15814;SDS011;8008;50.024;8.172;2022-09-12T14:45:16;2.40;;;2.20;;
15814;SDS011;8008;50.024;8.172;2022-09-12T14:47:50;2.35;;;2.17;;
15814;SDS011;8008;50.024;8.172;2022-09-12T14:50:22;2.63;;;2.42;;
15814;SDS011;8008;50.024;8.172;2022-09-12T14:53:02;2.40;;;2.20;;
15814;SDS011;8008;50.024;8.172;2022-09-12T14:55:32;2.40;;;2.20;;
15814;SDS011;8008;50.024;8.172;2022-09-12T14:58:14;2.58;;;2.38;;
15814;SDS011;8008;50.024;8.172;2022-09-12T15:00:52;3.70;;;2.45;;
15814;SDS011;8008;50.024;8.172;2022-09-12T15:03:26;2.70;;;2.50;;
15814;SDS011;8008;50.024;8.172;2022-09-12T15:05:57;2.90;;;2.60;;
15814;SDS011;8008;50.024;8.172;2022-09-12T15:08:26;4.13;;;2.70;;
15814;SDS011;8008;50.024;8.172;2022-09-12T15:10:54;2.70;;;2.50;;
15814;SDS011;8008;50.024;8.172;2022-09-12T15:13:22;3.20;;;2.88;;
15814;SDS011;8008;50.024;8.172;2022-09-12T15:15:52;2.70;;;2.50;;
15814;SDS011;8008;50.024;8.172;2022-09-12T15:18:21;2.75;;;2.55;;
15814;SDS011;8008;50.024;8.172;2022-09-12T15:20:51;3.65;;;2.58;;
15814;SDS011;8008;50.024;8.172;2022-09-12T15:23:28;2.67;;;2.47;;
15814;SDS011;8008;50.024;8.172;2022-09-12T15:25:58;2.90;;;2.70;;
15814;SDS011;8008;50.024;8.172;2022-09-12T15:28:28;3.05;;;2.85;;
15814;SDS011;8008;50.024;8.172;2022-09-12T15:30:58;3.38;;;2.65;;
15814;SDS011;8008;50.024;8.172;2022-09-12T15:33:31;3.33;;;3.03;;
15814;SDS011;8008;50.024;8.172;2022-09-12T15:35:59;4.47;;;3.10;;
15814;SDS011;8008;50.024;8.172;2022-09-12T15:38:28;3.50;;;2.97;;
15814;SDS011;8008;50.024;8.172;2022-09-12T15:40:56;3.20;;;2.90;;
15814;SDS011;8008;50.024;8.172;2022-09-12T15:43:23;2.97;;;2.78;;
15814;SDS011;8008;50.024;8.172;2022-09-12T15:45:52;4.45;;;3.30;;
15814;SDS011;8008;50.024;8.172;2022-09-12T15:48:20;3.58;;;3.28;;
15814;SDS011;8008;50.024;8.172;2022-09-12T15:50:48;5.65;;;3.78;;
15814;SDS011;8008;50.024;8.172;2022-09-12T15:53:16;3.90;;;3.50;;
15814;SDS011;8008;50.024;8.172;2022-09-12T15:55:45;3.53;;;3.22;;
15814;SDS011;8008;50.024;8.172;2022-09-12T15:58:13;3.70;;;3.40;;
15814;SDS011;8008;50.024;8.172;2022-09-12T16:00:41;3.53;;;3.22;;
15814;SDS011;8008;50.024;8.172;2022-09-12T16:03:11;3.80;;;3.40;;
15814;SDS011;8008;50.024;8.172;2022-09-12T16:05:47;4.18;;;3.50;;
15814;SDS011;8008;50.024;8.172;2022-09-12T16:08:15;3.60;;;3.30;;
15814;SDS011;8008;50.024;8.172;2022-09-12T16:10:51;3.58;;;3.30;;
15814;SDS011;8008;50.024;8.172;2022-09-12T16:13:22;3.58;;;3.28;;
15814;SDS011;8008;50.024;8.172;2022-09-12T16:15:51;3.80;;;3.35;;
15814;SDS011;8008;50.024;8.172;2022-09-12T16:18:22;3.75;;;3.30;;
15814;SDS011;8008;50.024;8.172;2022-09-12T16:20:51;4.22;;;3.28;;
15814;SDS011;8008;50.024;8.172;2022-09-12T16:23:19;3.78;;;3.47;;
15814;SDS011;8008;50.024;8.172;2022-09-12T16:25:55;4.22;;;3.45;;
15814;SDS011;8008;50.024;8.172;2022-09-12T16:28:24;3.70;;;3.40;;
15814;SDS011;8008;50.024;8.172;2022-09-12T16:30:55;3.60;;;3.30;;
15814;SDS011;8008;50.024;8.172;2022-09-12T16:33:23;3.78;;;3.40;;
15814;SDS011;8008;50.024;8.172;2022-09-12T16:35:51;3.72;;;3.38;;
15814;SDS011;8008;50.024;8.172;2022-09-12T16:38:20;3.20;;;3.00;;
15814;SDS011;8008;50.024;8.172;2022-09-12T16:40:48;3.63;;;3.33;;
15814;SDS011;8008;50.024;8.172;2022-09-12T16:43:17;3.05;;;2.85;;
15814;SDS011;8008;50.024;8.172;2022-09-12T16:45:45;3.47;;;3.17;;
15814;SDS011;8008;50.024;8.172;2022-09-12T16:48:13;3.47;;;3.17;;
15814;SDS011;8008;50.024;8.172;2022-09-12T16:50:41;3.80;;;3.42;;
15814;SDS011;8008;50.024;8.172;2022-09-12T16:53:09;3.72;;;3.42;;
15814;SDS011;8008;50.024;8.172;2022-09-12T16:55:38;3.67;;;3.17;;
15814;SDS011;8008;50.024;8.172;2022-09-12T16:58:06;3.60;;;3.08;;
15814;SDS011;8008;50.024;8.172;2022-09-12T17:00:35;4.30;;;3.50;;
15814;SDS011;8008;50.024;8.172;2022-09-12T17:03:03;3.47;;;3.17;;
15814;SDS011;8008;50.024;8.172;2022-09-12T17:05:30;3.60;;;3.30;;
15814;SDS011;8008;50.024;8.172;2022-09-12T17:07:58;3.70;;;3.20;;
15814;SDS011;8008;50.024;8.172;2022-09-12T17:10:27;3.47;;;3.17;;
15814;SDS011;8008;50.024;8.172;2022-09-12T17:12:55;4.22;;;3.33;;
15814;SDS011;8008;50.024;8.172;2022-09-12T17:15:23;3.50;;;3.20;;
15814;SDS011;8008;50.024;8.172;2022-09-12T17:17:52;4.38;;;3.25;;
15814;SDS011;8008;50.024;8.172;2022-09-12T17:20:20;3.40;;;3.10;;
15814;SDS011;8008;50.024;8.172;2022-09-12T17:22:49;4.45;;;3.47;;
15814;SDS011;8008;50.024;8.172;2022-09-12T17:25:16;3.58;;;3.20;;
15814;SDS011;8008;50.024;8.172;2022-09-12T17:27:44;5.40;;;3.40;;
15814;SDS011;8008;50.024;8.172;2022-09-12T17:30:12;5.18;;;3.70;;
15814;SDS011;8008;50.024;8.172;2022-09-12T17:32:40;3.20;;;2.95;;
15814;SDS011;8008;50.024;8.172;2022-09-12T17:35:09;4.60;;;3.70;;
15814;SDS011;8008;50.024;8.172;2022-09-12T17:37:37;3.58;;;3.30;;
15814;SDS011;8008;50.024;8.172;2022-09-12T17:40:06;3.53;;;3.22;;
15814;SDS011;8008;50.024;8.172;2022-09-12T17:42:35;3.83;;;3.47;;
15814;SDS011;8008;50.024;8.172;2022-09-12T17:45:03;4.80;;;3.42;;
15814;SDS011;8008;50.024;8.172;2022-09-12T17:47:32;3.72;;;3.00;;
15814;SDS011;8008;50.024;8.172;2022-09-12T17:50:00;3.70;;;3.25;;
15814;SDS011;8008;50.024;8.172;2022-09-12T17:52:49;5.25;;;3.50;;
15814;SDS011;8008;50.024;8.172;2022-09-12T17:55:17;4.90;;;3.90;;
15814;SDS011;8008;50.024;8.172;2022-09-12T17:57:45;7.93;;;4.45;;
15814;SDS011;8008;50.024;8.172;2022-09-12T18:00:14;5.65;;;3.92;;
15814;SDS011;8008;50.024;8.172;2022-09-12T18:02:42;9.20;;;4.00;;
15814;SDS011;8008;50.024;8.172;2022-09-12T18:05:11;4.60;;;3.60;;
15814;SDS011;8008;50.024;8.172;2022-09-12T18:07:40;4.10;;;3.70;;
15814;SDS011;8008;50.024;8.172;2022-09-12T18:10:10;5.22;;;3.80;;
15814;SDS011;8008;50.024;8.172;2022-09-12T18:12:38;4.82;;;3.88;;
15814;SDS011;8008;50.024;8.172;2022-09-12T18:15:07;5.30;;;3.85;;
15814;SDS011;8008;50.024;8.172;2022-09-12T18:17:35;5.95;;;4.07;;
15814;SDS011;8008;50.024;8.172;2022-09-12T18:20:04;6.63;;;4.38;;
15814;SDS011;8008;50.024;8.172;2022-09-12T18:22:32;5.05;;;4.05;;
15814;SDS011;8008;50.024;8.172;2022-09-12T18:25:00;3.95;;;3.55;;
15814;SDS011;8008;50.024;8.172;2022-09-12T18:27:30;4.55;;;4.00;;
15814;SDS011;8008;50.024;8.172;2022-09-12T18:29:57;4.45;;;3.90;;
15814;SDS011;8008;50.024;8.172;2022-09-12T18:32:45;5.88;;;4.15;;
15814;SDS011;8008;50.024;8.172;2022-09-12T18:35:13;5.05;;;4.40;;
15814;SDS011;8008;50.024;8.172;2022-09-12T18:37:41;4.22;;;3.83;;
15814;SDS011;8008;50.024;8.172;2022-09-12T18:40:10;5.28;;;4.68;;
15814;SDS011;8008;50.024;8.172;2022-09-12T18:42:39;8.55;;;4.68;;
15814;SDS011;8008;50.024;8.172;2022-09-12T18:45:07;5.18;;;4.50;;
15814;SDS011;8008;50.024;8.172;2022-09-12T18:47:36;6.47;;;4.72;;